Time;durP1;ratioP1;P1;durP2;ratioP2;P2;SDS_P1;SDS_P2;PMS_P1;PMS_P2;Temp;Humidity;BMP_temperature;BMP_pressure;BME280_temperature;BME280_humidity;BME280_pressure;Samples;Min_cycle;Max_cycle;Signal;HPM_P1;HPM_P2
2022/05/10 00:01:33;;;;;;;16.67;6.93;;;;;;;13.04;100.00;101964.19;4819103;29;20899;-79
2022/05/10 00:04:03;;;;;;;12.60;6.88;;;;;;;13.02;100.00;101958.00;4874629;29;20085;-81
2022/05/10 00:06:37;;;;;;;10.20;7.03;;;;;;;13.00;100.00;101954.47;4877443;29;20406;-81
2022/05/10 00:09:07;;;;;;;9.10;6.60;;;;;;;12.99;100.00;101950.06;4866972;29;20057;-82
2022/05/10 00:11:35;;;;;;;9.38;6.50;;;;;;;12.95;100.00;101949.13;4853266;29;20041;-81
2022/05/10 00:14:05;;;;;;;12.88;7.32;;;;;;;12.91;100.00;101947.34;4843867;29;20053;-80
2022/05/10 00:16:37;;;;;;;12.38;6.80;;;;;;;12.90;100.00;101944.66;4872688;29;20045;-79
2022/05/10 00:19:06;;;;;;;12.65;7.22;;;;;;;12.87;100.00;101945.50;4825059;29;20064;-81
2022/05/10 00:21:35;;;;;;;13.75;7.60;;;;;;;12.85;100.00;101945.50;4862984;29;20040;-81
2022/05/10 00:24:04;;;;;;;10.38;7.35;;;;;;;12.83;100.00;101944.56;4857628;29;20045;-81
2022/05/10 00:26:33;;;;;;;13.98;7.60;;;;;;;12.83;100.00;101936.63;4885449;29;20123;-80
2022/05/10 00:29:01;;;;;;;12.38;7.80;;;;;;;12.82;100.00;101931.34;4842615;29;20068;-81
2022/05/10 00:31:31;;;;;;;20.35;7.38;;;;;;;12.81;100.00;101938.38;4854975;29;20410;-80
2022/05/10 00:34:01;;;;;;;9.73;7.53;;;;;;;12.82;100.00;101929.59;4858534;29;20511;-81
2022/05/10 00:36:30;;;;;;;15.98;8.00;;;;;;;12.83;100.00;101941.03;4860035;29;20503;-80
2022/05/10 00:38:59;;;;;;;15.00;8.18;;;;;;;12.83;100.00;101931.34;4840621;29;20041;-82
2022/05/10 00:41:54;;;;;;;17.17;8.30;;;;;;;12.82;100.00;101932.22;4841475;29;20041;-82
2022/05/10 00:44:34;;;;;;;15.57;7.68;;;;;;;12.82;100.00;101941.94;4860155;29;20049;-81
2022/05/10 00:47:24;;;;;;;13.05;7.80;;;;;;;12.82;100.00;101934.88;4853579;29;20049;-82
2022/05/10 00:49:59;;;;;;;;;;;;;;;12.81;100.00;101942.78;4840030;29;20040;-80
2022/05/10 00:52:42;;;;;;;15.95;8.57;;;;;;;12.79;100.00;101936.59;4858541;29;19924;-80
2022/05/10 00:55:22;;;;;;;13.13;7.53;;;;;;;12.75;100.00;101932.16;4834516;29;20049;-82
2022/05/10 00:58:31;;;;;;;15.85;7.53;;;;;;;12.74;100.00;101935.66;4854482;29;20033;-80
2022/05/10 01:01:02;;;;;;;19.25;8.95;;;;;;;12.71;100.00;101935.63;4840098;29;20053;-82
2022/05/10 01:03:52;;;;;;;14.48;8.65;;;;;;;12.68;100.00;101940.03;4850028;29;20057;-80
2022/05/10 01:06:27;;;;;;;14.90;8.23;;;;;;;12.67;100.00;101940.00;4839360;29;20272;-79
2022/05/10 01:09:06;;;;;;;12.95;8.63;;;;;;;12.65;100.00;101934.69;4859197;29;20052;-80
2022/05/10 01:11:51;;;;;;;13.32;8.00;;;;;;;12.64;100.00;101932.00;4854947;29;20053;-80
2022/05/10 01:14:27;;;;;;;13.43;8.90;;;;;;;12.60;100.00;101920.50;4850182;29;20157;-80
2022/05/10 01:16:58;;;;;;;17.88;8.98;;;;;;;12.56;100.00;101924.00;4855971;29;20045;-80
2022/05/10 01:19:26;;;;;;;15.90;8.60;;;;;;;12.56;100.00;101915.19;4864708;29;20061;-80
2022/05/10 01:22:20;;;;;;;10.65;8.60;;;;;;;12.55;100.00;101918.69;4841305;29;20040;-80
2022/05/10 01:24:58;;;;;;;12.27;7.88;;;;;;;12.55;100.00;101910.75;4870407;29;20053;-80
2022/05/10 01:27:51;;;;;;;13.48;7.85;;;;;;;12.55;100.00;101905.44;4886075;29;20041;-81
2022/05/10 01:30:23;;;;;;;12.95;7.47;;;;;;;12.54;100.00;101903.69;4842564;29;20049;-80
2022/05/10 01:36:04;;;;;;;13.02;8.07;;;;;;;12.56;100.00;101880.81;4845647;29;20053;-80
2022/05/10 01:38:42;;;;;;;18.00;8.10;;;;;;;12.53;100.00;101891.34;4839352;29;20491;-81
2022/05/10 01:41:26;;;;;;;14.38;9.05;;;;;;;12.52;100.00;101886.94;4866489;29;20056;-80
2022/05/10 01:44:17;;;;;;;11.15;8.35;;;;;;;12.50;100.00;101870.16;4858353;29;20041;-82
2022/05/10 01:46:50;;;;;;;13.05;7.97;;;;;;;12.47;100.00;101869.22;4842447;29;20057;-80
2022/05/10 01:49:40;;;;;;;17.60;8.77;;;;;;;12.44;100.00;101858.66;4869595;29;20053;-79
2022/05/10 01:52:18;;;;;;;13.15;7.70;;;;;;;12.42;100.00;101859.47;4871515;29;20256;-81
2022/05/10 01:55:01;;;;;;;11.85;7.85;;;;;;;12.39;100.00;101846.25;4844549;29;20422;-82
2022/05/10 01:57:33;;;;;;;14.57;8.85;;;;;;;12.35;100.00;101849.72;4871160;29;20052;-80
2022/05/10 02:00:28;;;;;;;15.88;8.13;;;;;;;12.32;100.00;101839.97;4868230;29;20053;-81
2022/05/10 02:03:09;;;;;;;13.40;7.53;;;;;;;12.29;100.00;101840.84;4841867;29;20064;-80
2022/05/10 02:05:37;;;;;;;;;;;;;;;12.27;100.00;101847.00;4852449;29;20041;-80
2022/05/10 02:08:29;;;;;;;11.07;6.90;;;;;;;12.25;100.00;101846.09;4844345;29;19924;-83
2022/05/10 02:11:04;;;;;;;9.32;7.10;;;;;;;12.24;100.00;101841.66;4844692;29;20529;-81
2022/05/10 02:13:38;;;;;;;12.20;7.70;;;;;;;12.23;100.00;101839.88;4861966;29;20511;-81
2022/05/10 02:16:17;;;;;;;14.48;8.43;;;;;;;12.21;100.00;101839.88;4837977;29;20054;-82
2022/05/10 02:18:57;;;;;;;13.32;8.40;;;;;;;12.21;100.00;101847.81;4862288;29;20411;-81
2022/05/10 02:21:32;;;;;;;11.95;8.48;;;;;;;12.21;100.00;101831.03;4861079;29;20794;-80
2022/05/10 02:24:09;;;;;;;16.80;8.35;;;;;;;12.19;100.00;101843.34;4848339;29;20052;-80
2022/05/10 02:26:44;;;;;;;10.93;8.27;;;;;;;12.19;100.00;101838.97;4857488;29;20046;-80
2022/05/10 02:29:37;;;;;;;15.05;7.55;;;;;;;12.20;100.00;101837.22;4843016;29;20068;-81
2022/05/10 02:35:24;;;;;;;15.13;7.07;;;;;;;12.20;100.00;101834.56;4860735;29;20037;-81
2022/05/10 02:37:52;;;;;;;15.52;8.50;;;;;;;12.22;100.00;101823.13;4856408;29;20049;-81
2022/05/10 02:40:21;;;;;;;17.40;8.40;;;;;;;12.24;100.00;101823.16;4845320;29;20532;-81
2022/05/10 02:42:51;;;;;;;17.40;8.98;;;;;;;12.25;100.00;101819.66;4876311;29;20448;-80
2022/05/10 02:45:21;;;;;;;13.73;7.90;;;;;;;12.25;100.00;101825.81;4846709;29;20149;-82
2022/05/10 02:47:49;;;;;;;17.75;8.82;;;;;;;12.29;100.00;101824.09;4828586;29;20049;-81
2022/05/10 02:50:24;;;;;;;12.90;7.70;;;;;;;12.31;100.00;101822.38;4859328;29;20068;-80
2022/05/10 02:52:54;;;;;;;14.90;8.02;;;;;;;12.33;100.00;101820.63;4872663;29;20495;-80
2022/05/10 02:55:34;;;;;;;14.57;8.68;;;;;;;12.33;100.00;101823.28;4860948;29;20049;-80
2022/05/10 02:58:16;;;;;;;9.68;7.30;;;;;;;12.33;100.00;101815.34;4841400;29;20151;-80
2022/05/10 03:00:45;;;;;;;16.95;8.40;;;;;;;12.35;100.00;101810.06;4876455;29;20060;-81
2022/05/10 03:03:17;;;;;;;14.52;8.45;;;;;;;12.36;100.00;101803.91;4849958;29;20279;-81
2022/05/10 03:05:46;;;;;;;14.88;7.72;;;;;;;12.37;100.00;101806.56;4874355;29;20403;-80
2022/05/10 03:08:14;;;;;;;15.88;9.40;;;;;;;12.39;100.00;101803.94;4874080;29;20075;-80
2022/05/10 03:10:43;;;;;;;12.32;7.93;;;;;;;12.40;100.00;101798.69;4894049;29;20049;-81
2022/05/10 03:13:13;;;;;;;11.85;8.02;;;;;;;12.39;100.00;101801.31;4821169;29;20076;-80
2022/05/10 03:15:42;;;;;;;12.27;7.70;;;;;;;12.39;100.00;101794.25;4862380;29;20519;-80
2022/05/10 03:18:11;;;;;;;10.00;7.30;;;;;;;12.39;100.00;101788.09;4855122;29;20072;-79
2022/05/10 03:20:39;;;;;;;14.13;7.45;;;;;;;12.41;100.00;101789.88;4881778;29;20053;-81
2022/05/10 03:23:08;;;;;;;16.48;8.15;;;;;;;12.41;100.00;101784.59;4851471;29;20256;-81
2022/05/10 03:25:36;;;;;;;14.90;8.40;;;;;;;12.42;100.00;101785.47;4860038;29;20052;-80
2022/05/10 03:28:06;;;;;;;14.30;7.70;;;;;;;12.42;100.00;101789.00;4834387;29;20042;-80
2022/05/10 03:30:35;;;;;;;15.68;7.45;;;;;;;12.42;100.00;101789.00;4868304;29;20053;-80
2022/05/10 03:33:04;;;;;;;13.63;7.55;;;;;;;12.42;100.00;101775.78;4839921;29;20399;-82
2022/05/10 03:35:33;;;;;;;14.38;7.32;;;;;;;12.42;100.00;101778.44;4893128;29;20049;-81
2022/05/10 03:38:01;;;;;;;10.75;7.35;;;;;;;12.40;100.00;101769.59;4825208;29;20044;-80
2022/05/10 03:40:30;;;;;;;14.50;8.05;;;;;;;12.40;100.00;101769.59;4860419;29;20061;-80
2022/05/10 03:42:58;;;;;;;11.88;7.53;;;;;;;12.38;100.00;101765.16;4848204;29;20053;-82
2022/05/10 03:45:27;;;;;;;11.68;7.68;;;;;;;12.36;100.00;101767.81;4850781;29;20076;-80
2022/05/10 03:47:56;;;;;;;10.38;7.38;;;;;;;12.35;100.00;101763.38;4855066;29;20045;-80
2022/05/10 03:50:26;;;;;;;15.05;7.80;;;;;;;12.33;100.00;101757.19;4862184;29;20053;-80
2022/05/10 03:52:57;;;;;;;11.00;7.70;;;;;;;12.32;100.00;101750.13;4857876;29;20048;-81
2022/05/10 03:55:28;;;;;;;15.48;7.50;;;;;;;12.31;100.00;101744.84;4857675;29;20049;-80
2022/05/10 03:57:57;;;;;;;16.02;8.13;;;;;;;12.29;100.00;101750.09;4827535;29;20052;-80
2022/05/10 04:00:28;;;;;;;11.52;7.60;;;;;;;12.27;100.00;101751.84;4823200;29;20056;-81
2022/05/10 04:02:58;;;;;;;17.23;8.80;;;;;;;12.27;100.00;101749.22;4873669;29;20056;-80
2022/05/10 04:05:27;;;;;;;14.30;8.27;;;;;;;12.28;100.00;101749.19;4865895;29;20264;-80
2022/05/10 04:07:56;;;;;;;12.50;7.68;;;;;;;12.29;100.00;101745.69;4859669;29;20037;-80
2022/05/10 04:10:25;;;;;;;12.65;8.25;;;;;;;12.30;100.00;101751.88;4850636;29;20173;-79
2022/05/10 04:12:53;;;;;;;14.25;8.23;;;;;;;12.31;100.00;101743.09;4842423;29;20053;-81
2022/05/10 04:15:22;;;;;;;11.65;7.50;;;;;;;12.33;100.00;101745.75;4852163;29;20053;-81
2022/05/10 04:17:53;;;;;;;12.90;8.23;;;;;;;12.36;100.00;101744.03;4840985;29;20038;-82
2022/05/10 04:20:22;;;;;;;16.23;8.52;;;;;;;12.40;100.00;101743.19;4839292;29;20300;-80
2022/05/10 04:22:51;;;;;;;16.85;8.43;;;;;;;12.44;100.00;101746.75;4848423;29;20052;-81
2022/05/10 04:25:25;;;;;;;12.20;7.75;;;;;;;12.47;100.00;101744.97;4854575;29;20249;-80
2022/05/10 04:27:54;;;;;;;15.60;8.00;;;;;;;12.50;100.00;101746.78;4874980;29;20040;-80
2022/05/10 04:30:22;;;;;;;12.90;8.63;;;;;;;12.54;100.00;101753.88;4842854;29;20060;-81
2022/05/10 04:32:51;;;;;;;13.80;8.85;;;;;;;12.57;100.00;101742.44;4839978;29;20049;-80
2022/05/10 04:35:19;;;;;;;14.23;7.97;;;;;;;12.59;100.00;101751.25;4820363;29;20087;-81
2022/05/10 04:37:48;;;;;;;16.77;9.93;;;;;;;12.63;100.00;101746.03;4846177;29;20541;-80
2022/05/10 04:43:05;;;;;;;15.38;9.20;;;;;;;12.70;100.00;101751.38;4846191;29;20376;-81
2022/05/10 04:45:35;;;;;;;13.85;9.27;;;;;;;12.72;100.00;101744.34;4831841;29;20053;-81
2022/05/10 04:48:03;;;;;;;11.05;7.93;;;;;;;12.75;100.00;101755.81;4840358;29;20041;-80
2022/05/10 04:50:33;;;;;;;13.30;8.32;;;;;;;12.78;100.00;101750.56;4859716;29;20052;-80
2022/05/10 04:53:01;;;;;;;15.73;8.00;;;;;;;12.80;100.00;101748.81;4838547;29;20064;-81
2022/05/10 04:55:30;;;;;;;20.40;10.05;;;;;;;12.83;100.00;101750.59;4860691;29;20072;-80
2022/05/10 04:57:59;;;;;;;11.45;8.40;;;;;;;12.85;100.00;101757.69;4854966;29;20049;-81
2022/05/10 05:00:30;;;;;;;15.10;8.00;;;;;;;12.88;100.00;101752.41;4861038;29;20049;-80
2022/05/10 05:02:58;;;;;;;16.48;8.75;;;;;;;12.91;100.00;101754.22;4840025;29;20395;-81
2022/05/10 05:05:27;;;;;;;15.75;8.38;;;;;;;12.94;100.00;101743.63;4860296;29;20403;-80
2022/05/10 05:07:56;;;;;;;16.80;8.82;;;;;;;12.96;100.00;101749.81;4857382;29;20052;-82
2022/05/10 05:10:28;;;;;;;13.27;8.05;;;;;;;13.00;100.00;101746.31;4842138;29;20049;-80
2022/05/10 05:12:56;;;;;;;9.75;7.68;;;;;;;13.02;100.00;101748.97;4853157;29;20060;-80
2022/05/10 05:15:28;;;;;;;12.35;8.52;;;;;;;13.05;100.00;101751.66;4860127;29;20041;-81
2022/05/10 05:17:58;;;;;;;11.10;8.77;;;;;;;13.09;100.00;101748.16;4847607;29;20049;-81
2022/05/10 05:20:27;;;;;;;14.85;8.65;;;;;;;13.11;100.00;101746.41;4873548;29;20410;-80
2022/05/10 05:22:56;;;;;;;15.75;8.35;;;;;;;13.14;100.00;101735.84;4878238;29;20506;-81
2022/05/10 05:25:24;;;;;;;14.65;8.98;;;;;;;13.17;100.00;101738.50;4874215;29;20156;-80
2022/05/10 05:27:53;;;;;;;15.00;8.98;;;;;;;13.20;100.00;101732.38;4855279;29;20506;-82
2022/05/10 05:30:21;;;;;;;14.35;7.88;;;;;;;13.24;100.00;101737.66;4857129;29;20060;-80
2022/05/10 05:32:50;;;;;;;14.45;8.88;;;;;;;13.27;100.00;101728.88;4855459;29;20056;-79
2022/05/10 05:35:19;;;;;;;13.00;8.32;;;;;;;13.30;100.00;101730.66;4814846;29;20072;-80
2022/05/10 05:37:47;;;;;;;15.00;9.25;;;;;;;13.34;100.00;101729.81;4858216;29;20037;-81
2022/05/10 05:40:17;;;;;;;18.40;9.00;;;;;;;13.37;100.00;101733.38;4824103;29;20068;-81
2022/05/10 05:42:48;;;;;;;21.70;9.52;;;;;;;13.41;100.00;101736.94;4859614;29;20056;-80
2022/05/10 05:45:19;;;;;;;16.02;9.00;;;;;;;13.43;100.00;101729.88;4857361;29;20059;-81
2022/05/10 05:47:51;;;;;;;13.18;9.45;;;;;;;13.48;100.00;101724.59;4890215;29;20049;-81
2022/05/10 05:50:25;;;;;;;16.65;8.82;;;;;;;13.52;100.00;101729.06;4854456;29;20048;-81
2022/05/10 05:52:57;;;;;;;20.88;11.32;;;;;;;13.57;100.00;101729.94;4843119;29;20088;-80
2022/05/10 05:55:28;;;;;;;17.52;11.52;;;;;;;13.62;100.00;101721.13;4855893;29;20052;-81
2022/05/10 05:58:00;;;;;;;15.80;10.00;;;;;;;13.69;100.00;101722.06;4852158;29;20546;-81
2022/05/10 06:00:28;;;;;;;15.50;9.68;;;;;;;13.77;100.00;101719.44;4862630;29;20040;-80
2022/05/10 06:02:58;;;;;;;14.40;10.02;;;;;;;13.82;100.00;101718.59;4803619;29;20111;-81
2022/05/10 06:05:27;;;;;;;14.40;10.30;;;;;;;13.90;100.00;101707.13;4830681;29;20514;-81
2022/05/10 06:07:55;;;;;;;15.88;9.70;;;;;;;13.96;100.00;101710.66;4870320;29;20157;-81
2022/05/10 06:10:24;;;;;;;14.65;9.15;;;;;;;14.04;100.00;101705.38;4850946;29;20049;-80
2022/05/10 06:12:53;;;;;;;17.23;10.00;;;;;;;14.12;100.00;101710.72;4871901;29;20454;-81
2022/05/10 06:15:25;;;;;;;14.82;9.82;;;;;;;14.19;100.00;101713.38;4851003;29;20065;-80
2022/05/10 06:17:57;;;;;;;15.75;9.10;;;;;;;14.28;100.00;101707.22;4842507;29;20048;-80
2022/05/10 06:20:26;;;;;;;18.98;10.15;;;;;;;14.36;100.00;101712.53;4826033;29;20049;-81
2022/05/10 06:22:55;;;;;;;18.52;9.95;;;;;;;14.45;100.00;101706.38;4843709;29;20197;-81
2022/05/10 06:25:24;;;;;;;15.88;10.35;;;;;;;14.53;100.00;101708.13;4868939;29;20049;-81
2022/05/10 06:27:55;;;;;;;13.27;9.40;;;;;;;14.61;100.00;101706.41;4846614;29;20137;-81
2022/05/10 06:30:24;;;;;;;14.00;9.52;;;;;;;14.71;100.00;101707.28;4832701;29;20033;-81
2022/05/10 06:32:57;;;;;;;13.68;10.00;;;;;;;14.81;100.00;101697.56;4852965;29;20609;-81
2022/05/10 06:35:26;;;;;;;16.77;9.55;;;;;;;14.92;100.00;101694.91;4839485;29;20388;-80
2022/05/10 06:38:27;;;;;;;12.45;10.15;;;;;;;15.07;100.00;101691.34;4849177;29;20068;-80
2022/05/10 06:41:01;;;;;;;13.27;8.88;;;;;;;15.25;100.00;101683.31;4843251;29;20555;-80
2022/05/10 06:43:38;;;;;;;14.88;9.80;;;;;;;15.47;100.00;101677.94;4855282;29;20044;-81
2022/05/10 06:46:18;;;;;;;14.32;9.48;;;;;;;15.72;100.00;101676.03;4875727;29;20513;-81
2022/05/10 06:48:47;;;;;;;13.55;9.30;;;;;;;15.95;100.00;101683.91;4858760;29;20497;-81
2022/05/10 06:51:18;;;;;;;11.95;9.10;;;;;;;16.19;100.00;101674.91;4830420;29;20049;-80
2022/05/10 06:53:47;;;;;;;13.52;8.40;;;;;;;16.42;100.00;101674.75;4862142;29;20052;-81
2022/05/10 06:56:16;;;;;;;10.88;8.38;;;;;;;16.61;97.93;101672.81;4859749;29;20068;-80
2022/05/10 06:58:45;;;;;;;12.20;8.25;;;;;;;16.81;97.18;101669.97;4853980;29;20064;-80
2022/05/10 07:01:14;;;;;;;10.43;7.50;;;;;;;17.02;96.27;101660.94;4853699;29;20033;-80
2022/05/10 07:03:48;;;;;;;11.10;8.10;;;;;;;17.24;94.89;101647.34;4837788;29;20045;-81
2022/05/10 07:06:20;;;;;;;12.18;6.38;;;;;;;17.43;93.14;101653.34;4874952;29;20044;-80
2022/05/10 07:08:49;;;;;;;9.88;6.43;;;;;;;17.63;92.37;101651.31;4840952;29;20033;-80
2022/05/10 07:11:18;;;;;;;13.05;6.68;;;;;;;17.84;91.35;101641.25;4855326;29;20037;-80
2022/05/10 07:13:47;;;;;;;8.50;5.97;;;;;;;18.03;89.79;101644.56;4852160;29;20045;-80
2022/05/10 07:16:15;;;;;;;11.07;6.40;;;;;;;18.21;89.14;101643.41;4826382;29;20045;-80
2022/05/10 07:18:44;;;;;;;10.43;6.57;;;;;;;18.38;88.67;101638.69;4837861;29;20387;-80
2022/05/10 07:21:12;;;;;;;13.40;6.40;;;;;;;18.55;87.14;101638.38;4862264;29;20053;-82
2022/05/10 07:23:41;;;;;;;12.07;6.80;;;;;;;18.68;86.71;101636.38;4843526;29;20053;-81
2022/05/10 07:26:09;;;;;;;16.50;6.25;;;;;;;18.77;86.02;101629.97;4826584;29;20040;-82
2022/05/10 07:28:40;;;;;;;7.40;5.38;;;;;;;18.82;84.53;101621.00;4838174;29;20372;-82
2022/05/10 07:31:14;;;;;;;12.63;5.32;;;;;;;18.89;83.49;101611.09;4856622;29;20033;-81
2022/05/10 07:33:42;;;;;;;8.18;4.60;;;;;;;18.97;82.41;101608.28;4849641;29;20064;-82
2022/05/10 07:36:24;;;;;;;10.63;4.55;;;;;;;19.02;81.38;101601.94;4835047;29;20060;-83
2022/05/10 07:38:53;;;;;;;10.60;4.43;;;;;;;19.09;80.73;101606.25;4844683;29;20240;-82
2022/05/10 07:41:22;;;;;;;6.90;4.22;;;;;;;19.17;80.24;101591.84;4863689;29;20659;-82
2022/05/10 07:43:52;;;;;;;7.82;4.30;;;;;;;19.22;79.32;101592.63;4850619;29;20079;-82
2022/05/10 07:46:20;;;;;;;7.97;3.90;;;;;;;19.22;78.80;101597.97;4845036;29;20041;-82
2022/05/10 07:48:49;;;;;;;6.15;3.97;;;;;;;19.23;78.15;101597.09;4850439;29;20138;-82
2022/05/10 07:51:19;;;;;;;8.95;4.90;;;;;;;19.27;78.24;101590.75;4871792;29;20064;-82
2022/05/10 07:53:48;;;;;;;8.15;4.50;;;;;;;19.32;78.55;101588.88;4826647;29;20057;-81
2022/05/10 07:56:17;;;;;;;9.27;4.30;;;;;;;19.42;78.78;101585.06;4876518;29;20056;-81
2022/05/10 07:58:55;;;;;;;12.35;5.13;;;;;;;19.58;78.52;101585.59;4842041;29;20193;-81
2022/05/10 08:01:26;;;;;;;10.88;4.90;;;;;;;19.75;76.62;101577.22;4877237;29;20372;-81
2022/05/10 08:03:54;;;;;;;11.25;4.97;;;;;;;19.90;76.03;101572.44;4857597;29;20079;-81
2022/05/10 08:06:25;;;;;;;12.00;4.50;;;;;;;20.04;75.96;101571.19;4852863;29;20041;-81
2022/05/10 08:08:55;;;;;;;8.98;4.45;;;;;;;20.16;75.29;101572.66;4856372;29;20663;-80
2022/05/10 08:11:23;;;;;;;10.55;5.10;;;;;;;20.24;73.27;101576.06;4843460;29;20411;-81
2022/05/10 08:13:51;;;;;;;8.80;4.00;;;;;;;20.32;71.93;101575.84;4847927;29;20150;-81
2022/05/10 08:16:20;;;;;;;14.38;5.00;;;;;;;20.39;72.85;101573.88;4838104;29;20052;-80
2022/05/10 08:18:49;;;;;;;13.27;4.35;;;;;;;20.42;71.42;101569.31;4851795;29;20187;-80
2022/05/10 08:21:18;;;;;;;6.50;3.30;;;;;;;20.45;70.91;101571.03;4868965;29;20060;-81
2022/05/10 08:23:49;;;;;;;6.93;3.67;;;;;;;20.47;71.20;101563.84;4859128;29;20045;-81
2022/05/10 08:26:17;;;;;;;7.28;3.25;;;;;;;20.50;70.85;101563.78;4831507;29;20063;-81
2022/05/10 08:28:47;;;;;;;5.72;3.00;;;;;;;20.54;70.44;101551.19;4850782;29;20045;-82
2022/05/10 08:31:15;;;;;;;7.63;3.20;;;;;;;20.58;69.28;101555.53;4835132;29;20060;-82
2022/05/10 08:33:44;;;;;;;7.63;3.00;;;;;;;20.63;69.73;101549.16;4859200;29;20045;-81
2022/05/10 08:36:13;;;;;;;6.32;3.22;;;;;;;20.68;68.59;101550.81;4835187;29;20064;-82
2022/05/10 08:38:42;;;;;;;4.60;3.20;;;;;;;20.71;66.77;101553.44;4845929;29;20044;-81
2022/05/10 08:41:46;;;;;;;6.53;2.90;;;;;;;20.72;66.12;101544.44;4852517;29;20064;-81
2022/05/10 08:44:19;;;;;;;8.65;3.22;;;;;;;20.73;66.60;101548.91;4799386;29;20490;-82
2022/05/10 08:47:03;;;;;;;8.93;3.13;;;;;;;20.71;66.84;101546.25;4852272;29;20045;-81
2022/05/10 08:49:34;;;;;;;9.77;3.45;;;;;;;20.72;67.28;101533.75;4849550;29;20048;-80
2022/05/10 08:52:05;;;;;;;7.40;3.50;;;;;;;20.70;67.13;101517.75;4842618;29;20519;-82
2022/05/10 08:54:38;;;;;;;7.05;3.03;;;;;;;20.69;66.71;101499.03;4851738;29;20052;-83
2022/05/10 08:57:45;;;;;;;5.90;3.30;;;;;;;20.68;66.78;101510.66;4853947;29;20522;-82
2022/05/10 09:00:31;;;;;;;8.73;2.78;;;;;;;20.67;66.28;101516.94;4848511;29;20709;-81
2022/05/10 09:03:12;;;;;;;7.57;3.00;;;;;;;20.70;65.67;101508.81;4852959;29;20495;-82
2022/05/10 09:05:44;;;;;;;4.80;2.97;;;;;;;20.75;66.57;101501.53;4853579;29;20048;-82
2022/05/10 09:08:20;;;;;;;5.63;2.80;;;;;;;20.79;64.48;101506.78;4851160;29;20049;-82
2022/05/10 09:10:57;;;;;;;5.20;2.75;;;;;;;20.83;65.07;101505.75;4847738;29;20072;-82
2022/05/10 09:13:26;;;;;;;7.55;3.92;;;;;;;20.87;65.40;101500.28;4859075;29;20045;-82
2022/05/10 09:15:58;;;;;;;7.72;3.28;;;;;;;20.89;65.26;101501.13;4840686;29;20040;-81
2022/05/10 09:18:49;;;;;;;6.70;3.17;;;;;;;20.90;64.40;101486.81;4861647;29;20049;-80
2022/05/10 09:21:27;;;;;;;5.22;3.08;;;;;;;20.91;64.96;101488.59;4862276;29;20071;-83
2022/05/10 09:24:28;;;;;;;6.95;2.83;;;;;;;20.93;63.50;101484.94;4859972;29;20313;-82
2022/05/10 09:27:03;;;;;;;8.05;2.85;;;;;;;20.94;64.77;101486.66;4867879;29;20045;-82
2022/05/10 09:29:47;;;;;;;9.20;3.45;;;;;;;20.98;64.54;101487.44;4850424;29;21117;-81
2022/05/10 09:35:13;;;;;;;5.95;3.10;;;;;;;21.00;63.05;101489.19;4849116;29;20049;-81
2022/05/10 09:37:59;;;;;;;7.53;3.03;;;;;;;20.99;63.15;101479.38;4855033;29;20041;-82
2022/05/10 09:40:32;;;;;;;12.73;3.17;;;;;;;20.99;64.65;101476.69;4865537;29;20119;-80
2022/05/10 09:43:15;;;;;;;8.10;3.00;;;;;;;20.99;64.69;101475.81;4854081;29;20053;-82
2022/05/10 09:45:45;;;;;;;7.78;3.50;;;;;;;21.01;64.55;101468.63;4815143;29;20076;-82
2022/05/10 09:48:18;;;;;;;6.22;3.00;;;;;;;21.06;64.42;101457.75;4851329;29;20552;-82
2022/05/10 09:50:51;;;;;;;6.28;3.00;;;;;;;21.12;64.88;101455.78;4833037;29;20045;-82
2022/05/10 09:53:29;;;;;;;5.70;3.25;;;;;;;21.21;64.54;101454.63;4853099;29;20048;-82
2022/05/10 09:56:05;;;;;;;6.50;3.22;;;;;;;21.31;64.42;101442.66;4851088;29;20037;-81
2022/05/10 09:58:37;;;;;;;8.07;3.53;;;;;;;21.43;64.30;101447.59;4855454;29;20053;-82
2022/05/10 10:01:11;;;;;;;7.68;3.25;;;;;;;21.59;63.04;101436.44;4849358;29;20993;-81
2022/05/10 10:03:42;;;;;;;7.68;3.35;;;;;;;21.76;62.88;101458.19;4849582;29;20053;-81
2022/05/10 10:06:20;;;;;;;7.43;3.30;;;;;;;21.94;62.62;101451.31;4866364;29;20055;-81
2022/05/10 10:08:55;;;;;;;11.27;3.65;;;;;;;22.09;62.37;101449.03;4850606;29;20056;-82
2022/05/10 10:11:26;;;;;;;6.18;3.65;;;;;;;22.20;61.07;101449.53;4831198;29;20054;-82
2022/05/10 10:13:59;;;;;;;10.88;4.07;;;;;;;22.27;61.21;101459.16;4806026;29;20074;-83
2022/05/10 10:16:33;;;;;;;7.00;3.88;;;;;;;22.33;60.48;101450.88;4801995;29;20054;-81
2022/05/10 10:19:13;;;;;;;10.57;3.83;;;;;;;22.36;61.15;101452.56;4820815;29;23875;-82
2022/05/10 10:21:49;;;;;;;10.68;3.85;;;;;;;22.31;60.31;101447.38;4808293;29;20049;-82
2022/05/10 10:24:34;;;;;;;6.85;4.30;;;;;;;22.23;60.76;101445.84;4815547;29;20068;-81
2022/05/10 10:27:11;;;;;;;7.20;4.00;;;;;;;22.11;61.02;101445.34;4834169;29;20357;-80
2022/05/10 10:29:53;;;;;;;7.93;4.05;;;;;;;22.05;61.24;101445.56;4830664;29;20592;-82
2022/05/10 10:32:45;;;;;;;6.93;3.65;;;;;;;21.99;60.78;101441.31;4819176;29;20053;-80
2022/05/10 10:35:33;;;;;;;7.18;3.75;;;;;;;21.97;61.04;101450.34;4811590;29;20053;-81
2022/05/10 10:38:50;;;;;;;6.63;3.95;;;;;;;21.97;61.22;101435.13;4827351;29;20817;-82
2022/05/10 10:41:28;;;;;;;7.45;3.63;;;;;;;22.01;61.54;101430.50;4852281;29;20068;-81
2022/05/10 10:44:19;;;;;;;8.95;3.80;;;;;;;22.06;61.71;101422.28;4851109;29;20048;-81
2022/05/10 10:47:14;;;;;;;7.30;4.00;;;;;;;22.10;61.41;101419.47;4838726;29;20600;-81
2022/05/10 10:50:08;;;;;;;6.82;3.90;;;;;;;22.11;61.01;101413.13;4850132;29;20058;-81
2022/05/10 10:52:37;;;;;;;7.13;4.15;;;;;;;22.10;61.59;101424.81;4845289;29;20052;-81
2022/05/10 10:55:07;;;;;;;6.18;3.75;;;;;;;22.12;61.95;101422.09;4866086;29;20341;-79
2022/05/10 10:57:51;;;;;;;10.73;3.85;;;;;;;22.12;62.64;101420.28;4821262;29;20056;-80
2022/05/10 11:00:24;;;;;;;7.82;4.07;;;;;;;22.13;62.92;101424.69;4856981;29;20057;-81
2022/05/10 11:03:00;;;;;;;9.60;4.00;;;;;;;22.14;62.22;101413.03;4825686;29;21270;-80
2022/05/10 11:05:52;;;;;;;5.20;3.60;;;;;;;22.13;61.98;101411.28;4856099;29;20053;-81
2022/05/10 11:09:01;;;;;;;8.60;3.92;;;;;;;22.14;62.29;101404.13;4853367;29;20049;-81
2022/05/10 11:12:21;;;;;;;11.00;4.05;;;;;;;22.15;61.76;101409.41;4855197;29;20045;-81
2022/05/10 11:15:13;;;;;;;9.18;4.22;;;;;;;22.12;61.79;101408.66;4827693;29;20084;-81
2022/05/10 11:18:16;;;;;;;5.00;3.78;;;;;;;22.05;60.98;101405.31;4834702;29;20357;-82
2022/05/10 11:20:52;;;;;;;9.52;4.15;;;;;;;22.00;63.19;101409.97;4858778;29;20053;-80
2022/05/10 11:23:50;;;;;;;8.85;4.05;;;;;;;21.92;62.24;101401.31;4851298;29;20065;-80
2022/05/10 11:26:32;;;;;;;11.40;4.10;;;;;;;21.84;62.97;101404.28;4868266;29;20056;-80
2022/05/10 11:29:38;;;;;;;9.07;4.35;;;;;;;21.79;63.81;101417.84;4849973;29;20048;-80
2022/05/10 11:32:09;;;;;;;9.98;4.75;;;;;;;21.71;64.39;101417.22;4818695;29;20083;-84
2022/05/10 11:34:51;;;;;;;10.80;5.05;;;;;;;21.64;65.07;101410.31;4843239;29;20499;-84
2022/05/10 11:37:29;;;;;;;8.43;5.10;;;;;;;21.58;66.99;101413.22;4838463;29;20526;-84
2022/05/10 11:40:33;;;;;;;12.85;4.90;;;;;;;21.50;68.83;101402.75;4834707;29;20061;-84
2022/05/10 11:43:23;;;;;;;12.63;5.40;;;;;;;21.47;69.39;101399.28;4873769;29;20042;-83
2022/05/10 11:46:20;;;;;;;11.75;4.72;;;;;;;21.43;68.16;101385.94;4851293;29;20053;-84
2022/05/10 11:48:55;;;;;;;11.40;5.22;;;;;;;21.43;68.03;101388.63;4840850;29;20053;-82
2022/05/10 11:51:45;;;;;;;7.88;4.60;;;;;;;21.48;68.00;101387.66;4863728;29;20080;-84
2022/05/10 11:54:26;;;;;;;15.85;5.57;;;;;;;21.53;67.18;101388.34;4840543;29;20053;-83
2022/05/10 11:56:56;;;;;;;9.77;4.20;;;;;;;21.65;67.07;101387.94;4848133;29;20277;-83
2022/05/10 11:59:32;;;;;;;10.88;4.40;;;;;;;21.77;66.27;101371.41;4856793;29;20403;-83
2022/05/10 12:02:03;;;;;;;6.38;4.30;;;;;;;21.90;65.60;101385.28;4852939;29;20045;-84